createdAt,value
2018-03-23T00:01:18.412Z,100.00
2018-03-23T00:03:45.932Z,100.00
2018-03-23T00:06:13.487Z,100.00
2018-03-23T00:08:41.021Z,100.00
2018-03-23T00:11:08.524Z,99.98
2018-03-23T00:13:36.040Z,99.91
2018-03-23T00:16:03.566Z,100.00
2018-03-23T00:18:31.103Z,100.00
2018-03-23T00:20:58.616Z,100.00
2018-03-23T00:23:26.190Z,100.00
2018-03-23T00:25:53.733Z,100.00
2018-03-23T00:28:21.279Z,99.96
2018-03-23T00:30:48.830Z,99.86
2018-03-23T00:33:16.407Z,100.00
2018-03-23T00:35:43.909Z,100.00
2018-03-23T00:38:11.424Z,100.00
2018-03-23T00:40:38.942Z,100.00
2018-03-23T00:43:06.479Z,99.80
2018-03-23T00:45:34.002Z,100.00
2018-03-23T00:48:01.498Z,99.93
2018-03-23T00:50:29.109Z,99.86
2018-03-23T00:52:56.667Z,99.89
2018-03-23T00:55:24.243Z,99.78
2018-03-23T00:57:51.766Z,100.00
2018-03-23T01:00:19.283Z,99.70
2018-03-23T01:02:46.778Z,99.82
2018-03-23T01:05:14.301Z,99.69
2018-03-23T01:07:41.845Z,99.68
2018-03-23T01:10:09.380Z,99.62
2018-03-23T01:12:36.889Z,99.83
2018-03-23T01:15:04.380Z,99.76
2018-03-23T01:17:31.921Z,99.43
2018-03-23T01:19:59.457Z,99.45
2018-03-23T01:22:27.004Z,99.46
2018-03-23T01:24:54.561Z,99.43
2018-03-23T01:27:22.058Z,99.46
2018-03-23T01:29:49.638Z,99.43
2018-03-23T01:32:17.163Z,99.65
2018-03-23T01:34:44.663Z,99.95
2018-03-23T01:37:12.180Z,99.82
2018-03-23T01:39:39.673Z,99.79
2018-03-23T01:42:07.190Z,100.00
2018-03-23T01:44:34.739Z,99.79
2018-03-23T01:47:02.281Z,100.00
2018-03-23T01:49:29.805Z,99.82
2018-03-23T01:51:57.352Z,100.00
2018-03-23T01:54:24.985Z,100.00
2018-03-23T01:56:52.491Z,99.98
2018-03-23T01:59:20.009Z,99.85
2018-03-23T02:01:47.566Z,99.82
2018-03-23T02:04:15.077Z,99.73
2018-03-23T02:06:42.582Z,99.65
2018-03-23T02:09:10.156Z,99.80
2018-03-23T02:11:37.664Z,99.67
2018-03-23T02:14:05.184Z,99.81
2018-03-23T02:16:32.742Z,99.93
2018-03-23T02:19:00.281Z,99.79
2018-03-23T02:21:27.790Z,99.46
2018-03-23T02:23:55.327Z,99.85
2018-03-23T02:26:22.868Z,99.73
2018-03-23T02:28:50.391Z,99.84
2018-03-23T02:31:17.919Z,99.82
2018-03-23T02:33:45.441Z,99.78
2018-03-23T02:36:12.979Z,99.79
2018-03-23T02:38:40.512Z,99.89
2018-03-23T02:41:08.022Z,99.84
2018-03-23T02:43:35.546Z,99.98
2018-03-23T02:46:03.075Z,100.00
2018-03-23T02:48:30.749Z,100.00
2018-03-23T02:50:58.245Z,100.00
2018-03-23T02:53:25.792Z,100.00
2018-03-23T02:55:53.323Z,99.86
2018-03-23T02:58:20.826Z,99.89
2018-03-23T03:00:48.344Z,99.99
2018-03-23T03:03:15.845Z,99.94
2018-03-23T03:05:43.387Z,100.00
2018-03-23T03:08:10.954Z,99.98
2018-03-23T03:10:38.471Z,100.00
2018-03-23T03:13:06.008Z,100.00
2018-03-23T03:15:33.519Z,99.92
2018-03-23T03:18:01.033Z,100.00
2018-03-23T03:20:28.525Z,100.00
2018-03-23T03:22:56.062Z,100.00
2018-03-23T03:25:23.592Z,100.00
2018-03-23T03:27:51.215Z,100.00
2018-03-23T03:30:18.730Z,100.00
2018-03-23T03:32:46.250Z,100.00
2018-03-23T03:35:13.774Z,99.81
2018-03-23T03:37:41.285Z,99.92
2018-03-23T03:40:08.855Z,99.58
2018-03-23T03:42:36.378Z,99.37
2018-03-23T03:45:03.877Z,99.00
2018-03-23T03:47:31.402Z,98.93
2018-03-23T03:49:58.916Z,99.15
2018-03-23T03:52:26.449Z,99.16
2018-03-23T03:54:53.949Z,99.28
2018-03-23T03:57:21.471Z,99.13
2018-03-23T03:59:48.992Z,99.10
2018-03-23T04:02:16.943Z,99.13
2018-03-23T04:04:44.440Z,99.48
2018-03-23T04:07:12.005Z,99.45
2018-03-23T04:09:39.504Z,99.29
2018-03-23T04:12:07.071Z,99.13
2018-03-23T04:14:34.626Z,98.82
2018-03-23T04:17:02.214Z,98.89
2018-03-23T04:19:29.720Z,99.08
2018-03-23T04:21:57.236Z,98.88
2018-03-23T04:24:25.056Z,99.14
2018-03-23T04:26:52.612Z,98.69
2018-03-23T04:29:20.111Z,99.18
2018-03-23T04:31:47.625Z,99.10
2018-03-23T04:34:15.120Z,98.85
2018-03-23T04:36:42.639Z,99.63
2018-03-23T04:39:10.150Z,99.63
2018-03-23T04:41:37.658Z,99.71
2018-03-23T04:44:05.161Z,99.43
2018-03-23T04:46:32.692Z,99.87
2018-03-23T04:49:00.220Z,99.88
2018-03-23T04:51:27.731Z,99.52
2018-03-23T04:53:55.225Z,99.76
2018-03-23T04:56:22.791Z,99.69
2018-03-23T04:58:50.290Z,99.79
2018-03-23T05:01:17.803Z,99.88
2018-03-23T05:03:45.327Z,100.00
2018-03-23T05:06:12.852Z,100.00
2018-03-23T05:08:40.360Z,100.00
2018-03-23T05:11:07.872Z,100.00
2018-03-23T05:13:35.381Z,100.00
2018-03-23T05:16:02.900Z,100.00
2018-03-23T05:18:30.418Z,99.63
2018-03-23T05:20:57.945Z,99.62
2018-03-23T05:23:26.380Z,99.12
2018-03-23T05:25:53.904Z,99.37
2018-03-23T05:28:21.397Z,99.28
2018-03-23T05:30:48.914Z,98.95
2018-03-23T05:33:16.413Z,98.32
2018-03-23T05:35:43.933Z,97.78
2018-03-23T05:38:11.419Z,97.90
2018-03-23T05:40:39.016Z,97.22
2018-03-23T05:43:06.471Z,96.83
2018-03-23T05:45:34.011Z,96.69
2018-03-23T05:48:01.571Z,96.38
2018-03-23T05:50:29.109Z,96.48
2018-03-23T05:52:56.601Z,96.02
2018-03-23T05:55:25.064Z,95.89
2018-03-23T05:57:53.004Z,96.46
2018-03-23T06:00:20.522Z,96.11
2018-03-23T06:02:48.049Z,96.22
2018-03-23T06:05:15.570Z,96.22
2018-03-23T06:07:43.094Z,96.26
2018-03-23T06:10:10.591Z,95.96
2018-03-23T06:12:38.113Z,95.67
2018-03-23T06:15:05.639Z,95.39
2018-03-23T06:17:33.175Z,95.88
2018-03-23T06:20:00.685Z,95.65
2018-03-23T06:22:28.214Z,95.38
2018-03-23T06:24:55.751Z,95.21
2018-03-23T06:27:23.289Z,94.76
2018-03-23T06:29:50.822Z,94.96
2018-03-23T06:32:18.352Z,94.62
2018-03-23T06:34:45.972Z,94.50
2018-03-23T06:37:13.479Z,93.43
2018-03-23T06:39:41.008Z,93.81
2018-03-23T06:42:08.529Z,93.01
2018-03-23T06:44:36.043Z,92.83
2018-03-23T06:47:03.634Z,92.79
2018-03-23T06:49:31.156Z,92.71
2018-03-23T06:51:58.679Z,93.05
2018-03-23T06:54:26.189Z,92.56
2018-03-23T06:56:53.719Z,92.67
2018-03-23T06:59:21.247Z,92.66
2018-03-23T07:01:48.779Z,92.52
2018-03-23T07:04:16.282Z,91.65
2018-03-23T07:06:43.793Z,92.81
2018-03-23T07:09:11.322Z,91.99
2018-03-23T07:11:38.832Z,92.15
2018-03-23T07:14:06.369Z,92.23
2018-03-23T07:16:33.875Z,92.18
2018-03-23T07:19:01.381Z,91.77
2018-03-23T07:21:28.890Z,92.13
2018-03-23T07:23:56.403Z,92.16
2018-03-23T07:26:23.930Z,92.42
2018-03-23T07:28:51.431Z,92.80
2018-03-23T07:31:18.931Z,92.69
2018-03-23T07:33:46.446Z,92.41
2018-03-23T07:36:13.949Z,92.50
2018-03-23T07:38:41.459Z,92.13
2018-03-23T07:41:08.971Z,92.22
2018-03-23T07:43:36.456Z,92.07
2018-03-23T07:46:04.017Z,91.22
2018-03-23T07:48:31.568Z,91.31
2018-03-23T07:50:59.088Z,91.04
2018-03-23T07:53:26.617Z,91.37
2018-03-23T07:55:54.260Z,91.64
2018-03-23T07:58:21.771Z,91.37
2018-03-23T08:00:49.288Z,90.71
2018-03-23T08:03:16.823Z,90.89
2018-03-23T08:05:44.320Z,89.49
2018-03-23T08:08:11.837Z,89.57
2018-03-23T08:10:39.353Z,88.76
2018-03-23T08:13:06.863Z,88.29
2018-03-23T08:15:34.422Z,89.87
2018-03-23T08:18:01.943Z,88.59
2018-03-23T08:20:29.455Z,86.95
2018-03-23T08:22:56.995Z,87.25
2018-03-23T08:25:25.115Z,86.79
2018-03-23T08:27:52.647Z,88.02
2018-03-23T08:30:20.192Z,87.52
2018-03-23T08:32:47.718Z,87.90
2018-03-23T08:35:15.223Z,88.02
2018-03-23T08:37:42.735Z,86.76
2018-03-23T08:40:10.231Z,86.73
2018-03-23T08:42:37.736Z,87.72
2018-03-23T08:45:05.268Z,88.39
2018-03-23T08:47:32.780Z,87.71
2018-03-23T08:50:00.315Z,88.37
2018-03-23T08:52:27.840Z,87.53
2018-03-23T08:54:55.361Z,87.55
2018-03-23T08:57:22.853Z,87.88
2018-03-23T08:59:50.426Z,87.04
2018-03-23T09:02:17.959Z,86.93
2018-03-23T09:04:45.471Z,86.78
2018-03-23T09:07:13.157Z,86.19
2018-03-23T09:09:40.704Z,86.31
2018-03-23T09:12:08.288Z,85.75
2018-03-23T09:14:35.775Z,86.00
2018-03-23T09:17:03.280Z,84.70
2018-03-23T09:19:30.783Z,84.62
2018-03-23T09:21:58.327Z,83.88
2018-03-23T09:24:25.960Z,83.06
2018-03-23T09:26:53.484Z,85.64
2018-03-23T09:29:21.022Z,83.56
2018-03-23T09:31:48.512Z,82.62
2018-03-23T09:34:16.005Z,85.25
2018-03-23T09:36:43.513Z,86.00
2018-03-23T09:39:11.023Z,85.86
2018-03-23T09:41:38.544Z,86.23
2018-03-23T09:44:06.081Z,84.28
2018-03-23T09:46:33.684Z,86.09
2018-03-23T09:49:01.192Z,85.04
2018-03-23T09:51:28.738Z,86.47
2018-03-23T09:53:56.280Z,85.87
2018-03-23T09:56:23.789Z,88.12
2018-03-23T09:58:51.276Z,86.15
2018-03-23T10:01:18.756Z,84.92
2018-03-23T10:03:46.383Z,84.86
2018-03-23T10:06:13.956Z,85.93
2018-03-23T10:08:41.485Z,83.65
2018-03-23T10:11:09.032Z,82.69
2018-03-23T10:13:36.526Z,82.36
2018-03-23T10:16:04.036Z,81.41
2018-03-23T10:18:31.617Z,79.64
2018-03-23T10:20:59.213Z,81.57
2018-03-23T10:23:26.699Z,84.16
2018-03-23T10:25:54.211Z,83.33
2018-03-23T10:28:21.732Z,81.43
2018-03-23T10:30:49.312Z,80.95
2018-03-23T10:33:16.816Z,80.25
2018-03-23T10:35:44.320Z,79.67
2018-03-23T10:38:11.832Z,78.56
2018-03-23T10:40:39.316Z,78.07
2018-03-23T10:43:06.848Z,79.64
2018-03-23T10:45:34.379Z,81.63
2018-03-23T10:48:01.878Z,80.74
2018-03-23T10:50:29.436Z,80.47
2018-03-23T10:52:56.951Z,80.11
2018-03-23T10:55:24.589Z,81.30
2018-03-23T10:57:52.181Z,79.70
2018-03-23T11:00:25.210Z,79.82
2018-03-23T11:02:54.724Z,80.36
2018-03-23T11:05:22.260Z,83.06
2018-03-23T11:07:49.770Z,79.91
2018-03-23T11:10:17.279Z,79.39
2018-03-23T11:12:44.823Z,78.88
2018-03-23T11:15:12.370Z,82.16
2018-03-23T11:17:39.924Z,77.82
2018-03-23T11:20:07.471Z,78.53
2018-03-23T11:22:34.965Z,78.23
2018-03-23T11:25:02.484Z,78.71
2018-03-23T11:27:30.039Z,77.41
2018-03-23T11:29:57.530Z,79.93
2018-03-23T11:32:25.103Z,80.29
2018-03-23T11:34:52.650Z,78.68
2018-03-23T11:37:20.168Z,80.47
2018-03-23T11:39:47.698Z,79.22
2018-03-23T11:42:15.292Z,78.19
2018-03-23T11:44:42.832Z,76.56
2018-03-23T11:47:10.355Z,76.41
2018-03-23T11:49:37.973Z,76.83
2018-03-23T11:52:05.671Z,80.47
2018-03-23T11:54:33.209Z,80.10
2018-03-23T11:57:00.992Z,80.81
2018-03-23T11:59:28.530Z,80.66
2018-03-23T12:01:56.063Z,79.80
2018-03-23T12:04:23.573Z,80.59
2018-03-23T12:06:51.101Z,81.11
2018-03-23T12:09:18.605Z,80.26
2018-03-23T12:11:46.128Z,83.51
2018-03-23T12:14:14.382Z,80.76
2018-03-23T12:16:41.930Z,80.49
2018-03-23T12:19:09.636Z,80.25
2018-03-23T12:21:37.125Z,81.12
2018-03-23T12:24:04.645Z,79.83
2018-03-23T12:26:32.144Z,78.98
2018-03-23T12:28:59.634Z,81.21
2018-03-23T12:31:27.160Z,77.96
2018-03-23T12:33:54.646Z,79.14
2018-03-23T12:36:22.194Z,78.57
2018-03-23T12:38:49.716Z,77.92
2018-03-23T12:41:17.209Z,77.52
2018-03-23T12:43:44.708Z,79.32
2018-03-23T12:46:12.481Z,78.15
2018-03-23T12:48:40.008Z,77.41
2018-03-23T12:51:08.363Z,76.88
2018-03-23T12:53:35.876Z,78.30
2018-03-23T12:56:03.376Z,78.97
2018-03-23T12:58:30.912Z,79.80
2018-03-23T13:00:58.463Z,77.50
2018-03-23T13:03:25.979Z,77.07
2018-03-23T13:05:53.823Z,78.21
2018-03-23T13:08:22.031Z,78.05
2018-03-23T13:10:49.964Z,79.13
2018-03-23T13:13:17.504Z,79.48
2018-03-23T13:15:45.007Z,79.26
2018-03-23T13:18:12.588Z,77.54
2018-03-23T13:20:40.131Z,77.77
2018-03-23T13:23:07.872Z,79.32
2018-03-23T13:25:35.367Z,77.29
2018-03-23T13:28:03.701Z,75.66
2018-03-23T13:30:31.222Z,76.20
2018-03-23T13:32:58.735Z,75.59
2018-03-23T13:35:26.252Z,75.65
2018-03-23T13:37:53.755Z,76.48
2018-03-23T13:40:21.248Z,78.04
2018-03-23T13:42:48.767Z,77.71
2018-03-23T13:45:16.312Z,76.40
2018-03-23T13:47:43.823Z,76.01
2018-03-23T13:50:11.380Z,75.82
2018-03-23T13:52:39.430Z,78.33
2018-03-23T13:55:06.950Z,76.33
2018-03-23T13:57:34.471Z,77.90
2018-03-23T14:00:01.990Z,76.64
2018-03-23T14:02:30.312Z,75.81
2018-03-23T14:04:57.748Z,76.13
2018-03-23T14:07:25.267Z,76.02
2018-03-23T14:09:53.078Z,75.93
2018-03-23T14:12:20.584Z,75.89
2018-03-23T14:14:48.092Z,76.43
2018-03-23T14:17:15.617Z,75.15
2018-03-23T14:19:43.139Z,75.72
2018-03-23T14:22:10.650Z,74.51
2018-03-23T14:24:38.174Z,76.13
2018-03-23T14:27:05.677Z,75.16
2018-03-23T14:29:33.206Z,77.10
2018-03-23T14:32:00.730Z,78.21
2018-03-23T14:34:28.327Z,77.46
2018-03-23T14:36:55.835Z,77.54
2018-03-23T14:39:23.367Z,76.81
2018-03-23T14:41:51.701Z,76.02
2018-03-23T14:44:19.560Z,78.21
2018-03-23T14:46:47.071Z,77.85
2018-03-23T14:49:14.603Z,78.94
2018-03-23T14:51:42.089Z,77.40
2018-03-23T14:54:09.656Z,76.48
2018-03-23T14:56:37.266Z,75.91
2018-03-23T14:59:10.350Z,75.47
2018-03-23T15:01:37.829Z,75.06
2018-03-23T15:04:05.393Z,75.76
2018-03-23T15:06:35.190Z,75.59
2018-03-23T15:09:02.740Z,76.38
2018-03-23T15:11:30.978Z,76.30
2018-03-23T15:14:10.939Z,76.12
2018-03-23T15:16:38.463Z,76.04
2018-03-23T15:19:05.960Z,76.41
2018-03-23T15:21:35.138Z,76.57
2018-03-23T15:24:02.939Z,76.11
2018-03-23T15:26:34.621Z,75.46
2018-03-23T15:29:05.345Z,75.94
2018-03-23T15:31:32.892Z,76.22
2018-03-23T15:34:09.777Z,76.57
2018-03-23T15:36:42.059Z,76.01
2018-03-23T15:39:09.687Z,76.21
2018-03-23T15:41:37.182Z,76.33
2018-03-23T15:44:04.693Z,75.85
2018-03-23T15:46:33.109Z,75.92
2018-03-23T15:49:00.689Z,75.25
2018-03-23T15:51:28.256Z,74.91
2018-03-23T15:53:55.733Z,74.92
2018-03-23T15:56:23.294Z,74.61
2018-03-23T15:58:51.800Z,75.02
2018-03-23T16:01:19.312Z,75.11
2018-03-23T16:03:47.048Z,74.42
2018-03-23T16:06:15.990Z,75.08
2018-03-23T16:08:45.544Z,75.22
2018-03-23T16:11:15.653Z,74.56
2018-03-23T16:13:43.204Z,73.98
2018-03-23T16:16:11.555Z,73.98
2018-03-23T16:18:39.093Z,74.23
2018-03-23T16:21:06.606Z,74.50
2018-03-23T16:23:34.127Z,74.39
2018-03-23T16:26:01.645Z,74.48
2018-03-23T16:28:30.860Z,75.05
2018-03-23T16:30:59.025Z,74.93
2018-03-23T16:33:26.607Z,74.17
2018-03-23T16:35:54.130Z,74.01
2018-03-23T16:38:21.644Z,74.80
2018-03-23T16:40:51.148Z,75.09
2018-03-23T16:43:18.895Z,75.39
2018-03-23T16:45:46.415Z,75.28
2018-03-23T16:48:13.925Z,75.53
2018-03-23T16:50:41.443Z,74.98
2018-03-23T16:53:08.985Z,74.85
2018-03-23T16:55:36.591Z,75.49
2018-03-23T16:58:04.096Z,74.93
2018-03-23T17:00:31.677Z,74.95
2018-03-23T17:02:59.272Z,75.42
2018-03-23T17:05:31.037Z,75.40
2018-03-23T17:08:00.934Z,77.20
2018-03-23T17:10:28.495Z,77.34
2018-03-23T17:12:56.222Z,76.54
2018-03-23T17:15:23.818Z,76.19
2018-03-23T17:17:51.321Z,75.40
2018-03-23T17:20:19.470Z,75.36
2018-03-23T17:22:47.025Z,76.02
2018-03-23T17:25:14.632Z,77.04
2018-03-23T17:27:42.220Z,77.45
2018-03-23T17:30:10.130Z,78.38
2018-03-23T17:32:37.668Z,79.10
2018-03-23T17:35:05.165Z,79.58
2018-03-23T17:37:32.718Z,80.11
2018-03-23T17:40:00.223Z,79.73
2018-03-23T17:42:27.748Z,80.07
2018-03-23T17:44:55.240Z,79.82
2018-03-23T17:47:22.752Z,80.11
2018-03-23T17:49:50.261Z,79.96
2018-03-23T17:52:18.431Z,80.16
2018-03-23T17:54:46.242Z,80.22
2018-03-23T17:57:16.141Z,81.25
2018-03-23T17:59:44.374Z,81.47
2018-03-23T18:02:12.357Z,81.28
2018-03-23T18:04:40.157Z,80.67
2018-03-23T18:07:07.818Z,81.19
2018-03-23T18:09:35.331Z,81.36
2018-03-23T18:12:02.875Z,81.02
2018-03-23T18:14:32.995Z,81.13
2018-03-23T18:17:00.627Z,81.31
2018-03-23T18:19:28.159Z,81.51
2018-03-23T18:21:55.894Z,82.28
2018-03-23T18:24:23.405Z,82.24
2018-03-23T18:26:50.981Z,82.52
2018-03-23T18:29:18.494Z,83.03
2018-03-23T18:31:46.008Z,82.58
2018-03-23T18:34:13.522Z,82.99
2018-03-23T18:36:41.142Z,83.49
2018-03-23T18:39:08.631Z,84.53
2018-03-23T18:41:36.190Z,85.06
2018-03-23T18:44:05.764Z,83.84
2018-03-23T18:46:34.294Z,83.62
2018-03-23T18:49:01.797Z,83.57
2018-03-23T18:51:29.298Z,83.47
2018-03-23T18:53:56.816Z,83.31
2018-03-23T18:56:24.348Z,83.45
2018-03-23T18:58:51.856Z,83.40
2018-03-23T19:01:19.431Z,83.46
2018-03-23T19:03:47.776Z,82.98
2018-03-23T19:06:15.361Z,83.10
2018-03-23T19:08:42.866Z,82.77
2018-03-23T19:11:10.428Z,82.39
2018-03-23T19:13:37.970Z,83.81
2018-03-23T19:16:05.634Z,84.62
2018-03-23T19:18:33.344Z,85.12
2018-03-23T19:21:01.005Z,85.65
2018-03-23T19:23:29.486Z,84.43
2018-03-23T19:25:57.003Z,83.99
2018-03-23T19:28:25.481Z,85.13
2018-03-23T19:30:53.354Z,83.74
2018-03-23T19:33:20.899Z,83.40
2018-03-23T19:35:48.446Z,83.72
2018-03-23T19:38:16.018Z,83.92
2018-03-23T19:40:43.534Z,84.11
2018-03-23T19:43:11.070Z,85.27
2018-03-23T19:45:38.856Z,84.60
2018-03-23T19:48:06.501Z,85.50
2018-03-23T19:50:34.090Z,85.41
2018-03-23T19:53:01.812Z,85.57
2018-03-23T19:55:29.463Z,86.04
2018-03-23T19:57:57.028Z,86.49
2018-03-23T20:00:24.621Z,86.87
2018-03-23T20:02:52.205Z,87.45
2018-03-23T20:05:19.837Z,87.70
2018-03-23T20:07:47.441Z,87.44
2018-03-23T20:10:14.904Z,87.83
2018-03-23T20:12:42.500Z,88.23
2018-03-23T20:15:10.037Z,88.30
2018-03-23T20:17:43.095Z,88.33
2018-03-23T20:20:16.226Z,88.78
2018-03-23T20:22:43.844Z,88.76
2018-03-23T20:25:11.398Z,89.22
2018-03-23T20:27:44.534Z,89.36
2018-03-23T20:30:12.046Z,89.45
2018-03-23T20:32:39.695Z,89.56
2018-03-23T20:35:07.239Z,89.73
2018-03-23T20:37:34.812Z,89.87
2018-03-23T20:40:05.721Z,90.09
2018-03-23T20:42:33.369Z,90.33
2018-03-23T20:45:00.943Z,90.32
2018-03-23T20:47:28.446Z,90.40
2018-03-23T20:49:59.927Z,90.67
2018-03-23T20:52:27.487Z,90.71
2018-03-23T20:54:55.799Z,90.75
2018-03-23T20:57:23.370Z,90.86
2018-03-23T20:59:51.002Z,90.97
2018-03-23T21:02:18.536Z,91.46
2018-03-23T21:04:46.051Z,91.24
2018-03-23T21:07:13.777Z,91.16
2018-03-23T21:09:41.389Z,91.63
2018-03-23T21:12:09.071Z,91.47
2018-03-23T21:14:36.658Z,91.07
2018-03-23T21:17:04.277Z,91.31
2018-03-23T21:19:31.863Z,91.23
2018-03-23T21:21:59.471Z,91.25
2018-03-23T21:24:27.081Z,91.34
2018-03-23T21:26:54.661Z,91.49
2018-03-23T21:29:22.347Z,91.43
2018-03-23T21:31:51.743Z,91.53
2018-03-23T21:34:19.285Z,91.49
2018-03-23T21:36:46.924Z,91.62
2018-03-23T21:39:14.637Z,92.06
2018-03-23T21:41:42.208Z,91.46
2018-03-23T21:44:09.943Z,91.50
2018-03-23T21:46:37.500Z,91.49
2018-03-23T21:49:05.022Z,91.66
2018-03-23T21:51:32.722Z,91.43
2018-03-23T21:54:00.259Z,91.29
2018-03-23T21:56:28.017Z,91.52
2018-03-23T21:58:55.635Z,91.32
2018-03-23T22:01:23.332Z,91.66
2018-03-23T22:03:50.831Z,91.46
2018-03-23T22:06:18.447Z,91.48
2018-03-23T22:08:46.930Z,91.36
2018-03-23T22:11:14.479Z,91.34
2018-03-23T22:13:41.973Z,91.49
2018-03-23T22:16:09.564Z,91.39
2018-03-23T22:18:37.147Z,91.14
2018-03-23T22:21:04.729Z,91.42
2018-03-23T22:23:32.273Z,91.43
2018-03-23T22:25:59.836Z,91.35
2018-03-23T22:28:27.619Z,91.57
2018-03-23T22:30:55.170Z,91.67
2018-03-23T22:33:23.430Z,91.63
2018-03-23T22:35:50.992Z,91.75
2018-03-23T22:38:18.564Z,91.78
2018-03-23T22:40:46.207Z,91.75
2018-03-23T22:43:14.550Z,91.85
2018-03-23T22:45:42.081Z,92.02
2018-03-23T22:48:09.574Z,91.85
2018-03-23T22:50:37.850Z,91.88
2018-03-23T22:53:05.441Z,91.98
2018-03-23T22:55:33.013Z,91.83
2018-03-23T22:58:00.564Z,92.06
2018-03-23T23:00:28.225Z,92.16
2018-03-23T23:02:55.774Z,91.84
2018-03-23T23:05:23.312Z,91.84
2018-03-23T23:07:50.858Z,92.09
2018-03-23T23:10:19.549Z,92.02
2018-03-23T23:12:47.318Z,92.02
2018-03-23T23:15:14.968Z,91.94
2018-03-23T23:17:42.570Z,92.14
2018-03-23T23:20:10.160Z,92.26
2018-03-23T23:22:37.681Z,92.00
2018-03-23T23:25:05.207Z,91.94
2018-03-23T23:27:32.900Z,92.89
2018-03-23T23:30:00.432Z,92.21
2018-03-23T23:32:28.104Z,92.55
2018-03-23T23:34:55.745Z,92.19
2018-03-23T23:37:23.549Z,92.40
2018-03-23T23:39:51.072Z,92.47
2018-03-23T23:42:18.789Z,92.52
2018-03-23T23:44:46.457Z,92.41
2018-03-23T23:47:13.953Z,92.20
2018-03-23T23:49:41.835Z,92.34
2018-03-23T23:52:09.569Z,92.44
2018-03-23T23:54:37.143Z,92.41
2018-03-23T23:57:04.640Z,92.45
2018-03-23T23:59:32.406Z,92.25
